Time;durP1;ratioP1;P1;durP2;ratioP2;P2;SDS_P1;SDS_P2;PMS_P1;PMS_P2;Temp;Humidity;BMP_temperature;BMP_pressure;BME280_temperature;BME280_humidity;BME280_pressure;Samples;Min_cycle;Max_cycle;Signal;HPM_P1;HPM_P2
2023/09/15 00:00:17;;;;;;;5.15;3.05;;;;;;;12.65;100.00;100475.16;4823780;29;20041;-86
2023/09/15 00:02:59;;;;;;;5.57;3.33;;;;;;;12.71;100.00;100482.50;4794269;29;20033;-86
2023/09/15 00:05:41;;;;;;;6.32;3.20;;;;;;;12.82;100.00;100492.00;4803777;29;20042;-87
2023/09/15 00:08:16;;;;;;;5.93;3.20;;;;;;;12.81;100.00;100487.69;4795704;29;20037;-84
2023/09/15 00:11:40;;;;;;;5.15;2.95;;;;;;;12.85;100.00;100488.22;4809165;29;20129;-85
2023/09/15 00:14:17;;;;;;;3.65;2.67;;;;;;;12.81;100.00;100485.03;4808928;29;20489;-87
2023/09/15 00:20:20;;;;;;;6.22;2.42;;;;;;;12.78;100.00;100493.31;4818691;29;20050;-85
2023/09/15 00:22:58;;;;;;;7.20;3.00;;;;;;;12.81;100.00;100487.69;4788299;29;20046;-87
2023/09/15 00:25:30;;;;;;;7.00;2.70;;;;;;;12.83;100.00;100485.72;4816920;29;20046;-87
2023/09/15 00:31:15;;;;;;;8.45;3.20;;;;;;;12.81;100.00;100486.84;4803329;29;20049;-87
2023/09/15 00:33:48;;;;;;;5.22;2.92;;;;;;;12.83;100.00;100488.38;4816516;29;20042;-87
2023/09/15 00:36:29;;;;;;;4.00;2.75;;;;;;;12.80;100.00;100478.06;4816499;29;20114;-87
2023/09/15 00:39:01;;;;;;;5.90;3.45;;;;;;;12.85;100.00;100489.03;4806843;29;20042;-85
2023/09/15 00:41:37;;;;;;;5.15;2.80;;;;;;;12.85;100.00;100489.03;4801243;29;20511;-86
2023/09/15 00:44:05;;;;;;;6.15;3.35;;;;;;;12.83;100.00;100491.03;4799778;29;20084;-87
2023/09/15 00:46:36;;;;;;;5.60;3.15;;;;;;;12.86;100.00;100492.50;4779465;29;20038;-87
2023/09/15 00:49:06;;;;;;;4.00;2.70;;;;;;;12.76;100.00;100482.84;4782462;29;20136;-86
2023/09/15 00:51:43;;;;;;;6.30;3.15;;;;;;;12.83;100.00;100491.03;4814202;29;20074;-88
2023/09/15 00:54:34;;;;;;;6.95;2.90;;;;;;;12.75;100.00;100494.47;4813598;29;20042;-86
2023/09/15 00:57:11;;;;;;;11.32;3.30;;;;;;;12.66;100.00;100487.44;4805231;29;20054;-84
2023/09/15 00:59:40;;;;;;;4.93;3.00;;;;;;;12.67;100.00;100491.75;4804211;29;20543;-82
2023/09/15 01:02:08;;;;;;;6.32;3.13;;;;;;;12.60;100.00;100482.75;4806232;29;20071;-86
2023/09/15 01:04:46;;;;;;;7.75;3.05;;;;;;;12.58;100.00;100488.22;4788501;29;20045;-86
2023/09/15 01:07:19;;;;;;;6.45;2.75;;;;;;;12.53;100.00;100480.72;4804718;29;20038;-81
2023/09/15 01:09:49;;;;;;;6.82;2.92;;;;;;;12.52;100.00;100484.38;4817365;29;20176;-81
2023/09/15 01:12:19;;;;;;;6.13;2.53;;;;;;;12.51;100.00;100485.38;4800310;29;20483;-81
2023/09/15 01:14:49;;;;;;;6.40;2.53;;;;;;;12.53;100.00;100480.72;4823677;29;20539;-80
2023/09/15 01:17:32;;;;;;;4.57;2.50;;;;;;;12.53;100.00;100482.56;4817458;29;20548;-81
2023/09/15 01:20:21;;;;;;;4.57;2.10;;;;;;;12.53;100.00;100472.78;4786669;29;20094;-80
2023/09/15 01:23:12;;;;;;;4.03;2.13;;;;;;;12.53;100.00;100477.25;4816865;29;22658;-80
2023/09/15 01:25:55;;;;;;;8.20;2.38;;;;;;;12.52;100.00;100472.94;4829413;29;20042;-80
2023/09/15 01:29:04;;;;;;;6.07;2.00;;;;;;;12.46;100.00;100470.91;4786060;29;20035;-80
2023/09/15 01:31:34;;;;;;;7.43;2.45;;;;;;;12.43;100.00;100465.91;4804457;29;20034;-81
2023/09/15 01:34:02;;;;;;;9.23;2.05;;;;;;;12.36;100.00;100455.13;4795894;29;20056;-80
2023/09/15 01:36:31;;;;;;;6.10;2.35;;;;;;;12.34;100.00;100438.53;4776140;29;20122;-86
2023/09/15 01:38:59;;;;;;;4.25;2.05;;;;;;;12.25;100.00;100427.03;4795866;29;20045;-87
2023/09/15 01:41:27;;;;;;;5.80;2.30;;;;;;;12.23;100.00;100427.19;4793733;29;20042;-84
2023/09/15 01:43:57;;;;;;;6.10;2.03;;;;;;;12.19;100.00;100425.00;4777705;29;20131;-86
2023/09/15 01:46:28;;;;;;;4.88;2.60;;;;;;;12.12;100.00;100438.06;4793015;29;20038;-85
2023/09/15 01:49:25;;;;;;;4.88;2.30;;;;;;;12.10;100.00;100442.69;4808413;29;20117;-87
2023/09/15 01:52:05;;;;;;;6.10;2.22;;;;;;;12.06;100.00;100455.38;4810312;29;20083;-85
2023/09/15 01:54:38;;;;;;;6.90;2.90;;;;;;;12.05;100.00;100461.66;4792516;29;20050;-84
2023/09/15 01:57:12;;;;;;;3.40;1.77;;;;;;;12.07;100.00;100453.56;4791164;29;20057;-85
2023/09/15 01:59:46;;;;;;;4.63;1.90;;;;;;;12.02;100.00;100448.72;4804962;29;20081;-86
2023/09/15 02:02:13;;;;;;;5.57;1.95;;;;;;;11.97;100.00;100449.19;4781105;29;20549;-87
2023/09/15 02:04:41;;;;;;;5.03;1.75;;;;;;;11.97;100.00;100441.25;4777814;29;20229;-85
2023/09/15 02:07:09;;;;;;;4.13;1.67;;;;;;;11.96;100.00;100436.91;4777815;29;20498;-87
2023/09/15 02:09:38;;;;;;;3.83;1.50;;;;;;;11.97;100.00;100443.06;4808781;29;20088;-86
2023/09/15 02:12:06;;;;;;;5.50;1.63;;;;;;;11.94;100.00;100438.06;4805576;29;20050;-86
2023/09/15 02:14:35;;;;;;;5.05;1.60;;;;;;;11.89;100.00;100442.00;4777084;29;20122;-86
2023/09/15 02:17:13;;;;;;;9.00;1.83;;;;;;;11.88;100.00;100444.81;4792151;29;20030;-87
2023/09/15 02:19:42;;;;;;;;;;;;;;;11.82;100.00;100442.78;4799213;29;20116;-87
2023/09/15 02:22:10;;;;;;;3.28;1.55;;;;;;;11.79;100.00;100446.53;4804998;29;20377;-86
2023/09/15 02:24:38;;;;;;;3.13;1.67;;;;;;;11.81;100.00;100444.59;4786656;29;20058;-85
2023/09/15 02:27:08;;;;;;;4.60;1.30;;;;;;;11.83;100.00;100441.78;4792289;29;20062;-85
2023/09/15 02:29:43;;;;;;;6.70;1.42;;;;;;;11.77;100.00;100436.09;4821060;29;20520;-86
2023/09/15 02:32:13;;;;;;;4.80;1.67;;;;;;;11.74;100.00;100444.34;4798704;29;20039;-86
2023/09/15 02:34:42;;;;;;;5.78;1.42;;;;;;;11.76;100.00;100447.69;4804594;29;20474;-87
2023/09/15 02:37:10;;;;;;;5.10;1.40;;;;;;;11.74;100.00;100452.28;4804906;29;20038;-84
2023/09/15 02:39:39;;;;;;;4.82;1.42;;;;;;;11.73;100.00;100445.34;4794000;29;20030;-86
2023/09/15 02:42:08;;;;;;;5.28;1.45;;;;;;;11.69;100.00;100449.25;4790787;29;20075;-85
2023/09/15 02:44:36;;;;;;;5.32;1.65;;;;;;;11.74;100.00;100449.66;4805606;29;20039;-85
2023/09/15 02:47:04;;;;;;;5.22;1.83;;;;;;;11.72;100.00;100443.66;4790262;29;20130;-84
2023/09/15 02:49:37;;;;;;;4.88;1.58;;;;;;;11.77;100.00;100443.22;4808989;29;20943;-85
2023/09/15 02:52:06;;;;;;;4.65;1.70;;;;;;;11.72;100.00;100443.66;4824584;29;20034;-85
2023/09/15 02:54:37;;;;;;;2.38;1.48;;;;;;;11.74;100.00;100441.69;4810395;29;20468;-85
2023/09/15 02:57:11;;;;;;;8.77;1.88;;;;;;;11.66;100.00;100431.88;4822279;29;20046;-86
2023/09/15 02:59:45;;;;;;;4.00;1.83;;;;;;;11.74;100.00;100438.22;4793977;29;20038;-87
2023/09/15 03:02:14;;;;;;;3.28;1.55;;;;;;;11.77;100.00;100435.25;4796395;29;20109;-86
2023/09/15 03:04:45;;;;;;;6.50;2.25;;;;;;;11.72;100.00;100422.47;4792607;29;20107;-86
2023/09/15 03:07:14;;;;;;;7.68;1.75;;;;;;;11.73;100.00;100418.88;4817810;29;20097;-87
2023/09/15 03:09:42;;;;;;;2.45;1.70;;;;;;;11.66;100.00;100420.44;4777255;29;20565;-85
2023/09/15 03:12:20;;;;;;;5.93;2.08;;;;;;;11.68;100.00;100404.41;4787306;29;20046;-85
2023/09/15 03:14:53;;;;;;;4.57;1.98;;;;;;;11.65;100.00;100414.34;4793978;29;20030;-86
2023/09/15 03:17:26;;;;;;;4.28;1.77;;;;;;;11.60;100.00;100400.72;4807069;29;20042;-85
2023/09/15 03:20:13;;;;;;;6.15;2.60;;;;;;;11.63;100.00;100411.00;4803695;29;20042;-85
2023/09/15 03:22:47;;;;;;;4.15;1.83;;;;;;;11.63;100.00;100410.16;4807800;29;20034;-85
2023/09/15 03:25:26;;;;;;;4.88;1.98;;;;;;;11.63;100.00;100407.50;4831321;29;20061;-85
2023/09/15 03:27:57;;;;;;;3.65;1.90;;;;;;;11.64;100.00;100407.34;4820883;29;20041;-84
2023/09/15 03:30:28;;;;;;;6.70;2.30;;;;;;;11.64;100.00;100415.31;4808905;29;20060;-86
2023/09/15 03:33:04;;;;;;;2.05;1.63;;;;;;;11.63;100.00;100410.16;4810344;29;20527;-87
2023/09/15 03:35:33;;;;;;;8.85;2.05;;;;;;;11.66;100.00;100417.78;4834234;29;20515;-85
2023/09/15 03:38:03;;;;;;;5.68;2.25;;;;;;;11.65;100.00;100417.00;4810705;29;20075;-85
2023/09/15 03:40:52;;;;;;;6.25;2.20;;;;;;;11.75;100.00;100429.31;4821529;29;20086;-85
2023/09/15 03:43:59;;;;;;;4.68;1.65;;;;;;;11.73;100.00;100433.91;4810347;29;20045;-87
2023/09/15 03:46:44;;;;;;;6.18;1.95;;;;;;;11.72;100.00;100426.97;4790401;29;20048;-87
2023/09/15 03:49:22;;;;;;;3.20;1.90;;;;;;;11.74;100.00;100431.13;4816209;29;20071;-85
2023/09/15 03:51:56;;;;;;;3.35;1.75;;;;;;;11.75;100.00;100426.66;4793646;29;20436;-87
2023/09/15 03:54:28;;;;;;;5.00;1.80;;;;;;;11.73;100.00;100424.16;4809654;29;20124;-85
2023/09/15 03:56:57;;;;;;;4.10;2.20;;;;;;;11.73;100.00;100418.88;4830371;29;20121;-87
2023/09/15 03:59:27;;;;;;;10.55;2.17;;;;;;;11.62;100.00;100404.06;4810095;29;20034;-86
2023/09/15 04:01:58;;;;;;;11.15;2.55;;;;;;;11.68;100.00;100402.59;4811850;29;20050;-87
2023/09/15 04:04:26;;;;;;;5.82;2.45;;;;;;;11.64;100.00;100399.41;4833510;29;20090;-86
2023/09/15 04:06:54;;;;;;;3.97;2.20;;;;;;;11.63;100.00;100388.97;4811685;29;20486;-86
2023/09/15 04:09:25;;;;;;;5.10;2.05;;;;;;;11.63;100.00;100381.88;4805733;29;20053;-86
2023/09/15 04:11:54;;;;;;;6.15;2.20;;;;;;;11.63;100.00;100384.53;4832238;29;20487;-86
2023/09/15 04:14:22;;;;;;;5.63;1.90;;;;;;;11.59;100.00;100382.34;4809279;29;20197;-86
2023/09/15 04:16:50;;;;;;;6.13;1.92;;;;;;;11.60;100.00;100379.53;4828425;29;20037;-86
2023/09/15 04:19:18;;;;;;;4.43;1.60;;;;;;;11.60;100.00;100381.34;4795832;29;20034;-86
2023/09/15 04:21:46;;;;;;;4.88;1.80;;;;;;;11.66;100.00;100378.09;4808320;29;20495;-85
2023/09/15 04:24:17;;;;;;;3.20;1.80;;;;;;;11.62;100.00;100372.28;4801927;29;20050;-86
2023/09/15 04:26:50;;;;;;;4.72;2.30;;;;;;;11.62;100.00;100368.78;4824487;29;20041;-86
2023/09/15 04:29:20;;;;;;;4.32;1.73;;;;;;;11.60;100.00;100366.31;4821406;29;20034;-86
2023/09/15 04:31:51;;;;;;;9.75;2.20;;;;;;;11.58;100.00;100365.63;4819913;29;20065;-87
2023/09/15 04:34:21;;;;;;;3.55;1.90;;;;;;;11.55;100.00;100368.56;4804949;29;20050;-86
2023/09/15 04:36:50;;;;;;;6.65;2.42;;;;;;;11.57;100.00;100365.75;4793216;29;20511;-86
2023/09/15 04:39:23;;;;;;;4.75;2.60;;;;;;;11.58;100.00;100362.97;4814735;29;20307;-85
2023/09/15 04:41:53;;;;;;;8.90;2.25;;;;;;;11.63;100.00;100363.34;4819108;29;20121;-84
2023/09/15 04:44:23;;;;;;;9.90;2.10;;;;;;;11.57;100.00;100352.53;4849036;29;20042;-86
2023/09/15 04:46:53;;;;;;;4.68;2.17;;;;;;;11.59;100.00;100358.50;4809704;29;20531;-86
2023/09/15 04:49:23;;;;;;;7.30;2.13;;;;;;;11.53;100.00;100349.38;4826501;29;20042;-86
2023/09/15 04:51:53;;;;;;;5.70;2.25;;;;;;;11.51;100.00;100349.53;4800825;29;20052;-86
2023/09/15 04:54:23;;;;;;;7.78;2.70;;;;;;;11.50;100.00;100345.19;4812789;29;20048;-86
2023/09/15 04:56:54;;;;;;;3.50;2.05;;;;;;;11.49;100.00;100345.34;4804857;29;20484;-87
2023/09/15 04:59:28;;;;;;;5.47;2.42;;;;;;;11.42;100.00;100334.53;4826181;29;20137;-87
2023/09/15 05:02:04;;;;;;;7.78;2.20;;;;;;;11.43;100.00;100345.97;4853582;29;20128;-88
2023/09/15 05:04:32;;;;;;;4.93;2.45;;;;;;;11.39;100.00;100356.84;4824782;29;20080;-86
2023/09/15 05:07:03;;;;;;;4.90;2.35;;;;;;;11.37;100.00;100345.59;4811396;29;20061;-84
2023/09/15 05:09:31;;;;;;;3.65;2.45;;;;;;;11.38;100.00;100349.06;4819338;29;20054;-86
2023/09/15 05:12:01;;;;;;;5.00;2.75;;;;;;;11.45;100.00;100365.19;4813687;29;20140;-88
2023/09/15 05:14:30;;;;;;;4.38;2.25;;;;;;;11.42;100.00;100361.00;4815333;29;20090;-87
2023/09/15 05:17:00;;;;;;;3.97;2.28;;;;;;;11.47;100.00;100366.69;4827931;29;20038;-87
2023/09/15 05:19:32;;;;;;;3.75;2.20;;;;;;;11.41;100.00;100362.84;4815307;29;20072;-87
2023/09/15 05:22:05;;;;;;;4.55;2.10;;;;;;;11.38;100.00;100360.50;4790460;29;20053;-87
2023/09/15 05:24:39;;;;;;;5.63;2.17;;;;;;;11.43;100.00;100373.28;4817753;29;20050;-87
2023/09/15 05:27:14;;;;;;;8.48;2.25;;;;;;;11.48;100.00;100388.69;4795706;29;20134;-87
2023/09/15 05:29:43;;;;;;;9.23;2.13;;;;;;;11.47;100.00;100390.50;4795521;29;20073;-86
2023/09/15 05:32:30;;;;;;;4.65;1.88;;;;;;;11.51;100.00;100391.88;4793157;29;20077;-87
2023/09/15 05:35:43;;;;;;;6.65;2.33;;;;;;;11.50;100.00;100384.06;4792649;29;20049;-89
2023/09/15 05:38:12;;;;;;;5.95;2.90;;;;;;;11.49;100.00;100374.47;4793261;29;20057;-88
2023/09/15 05:40:40;;;;;;;6.18;2.80;;;;;;;11.43;100.00;100377.72;4810213;29;20035;-88
2023/09/15 05:43:13;;;;;;;6.40;1.50;;;;;;;11.43;100.00;100377.72;4797141;29;20399;-89
2023/09/15 05:46:29;;;;;;;2.35;1.48;;;;;;;11.43;100.00;100375.09;4797102;29;20039;-89
2023/09/15 05:49:20;;;;;;;4.75;1.63;;;;;;;11.36;100.00;100373.03;4785133;29;20050;-88
2023/09/15 05:51:56;;;;;;;3.78;1.45;;;;;;;11.39;100.00;100377.19;4796350;29;20054;-89
2023/09/15 05:54:34;;;;;;;;;;;;;;;;;;;;;
2023/09/15 05:57:46;;;;;;;4.15;2.40;;;;;;;11.43;100.00;100385.66;4739993;30;20575;-81
2023/09/15 06:00:36;;;;;;;3.90;2.63;;;;;;;11.43;100.00;100381.22;4716327;30;20510;-88
2023/09/15 06:03:40;;;;;;;8.50;3.17;;;;;;;11.46;100.00;100388.00;4708773;30;20059;-87
2023/09/15 06:07:21;;;;;;;;;;;;;;;;;;;;;
2023/09/15 06:10:16;;;;;;;5.90;2.53;;;;;;;11.46;100.00;100370.31;4803680;29;20045;-86
2023/09/15 06:12:45;;;;;;;2.83;2.55;;;;;;;11.39;100.00;100369.25;4794217;29;20046;-86
2023/09/15 06:15:13;;;;;;;3.80;2.53;;;;;;;11.40;100.00;100366.44;4807276;29;20038;-87
2023/09/15 06:17:41;;;;;;;9.52;3.60;;;;;;;11.41;100.00;100369.94;4795168;29;20129;-88
2023/09/15 06:20:08;;;;;;;5.13;3.25;;;;;;;11.42;100.00;100353.06;4797426;29;20031;-88
2023/09/15 06:22:37;;;;;;;5.68;4.07;;;;;;;11.35;100.00;100337.00;4792412;29;20046;-87
2023/09/15 06:25:04;;;;;;;5.47;3.33;;;;;;;11.42;100.00;100350.41;4806652;29;20054;-86
2023/09/15 06:27:33;;;;;;;4.53;2.03;;;;;;;11.36;100.00;100345.75;4819482;29;20045;-85
2023/09/15 06:30:01;;;;;;;2.08;1.85;;;;;;;11.40;100.00;100363.81;4809135;29;20038;-87
2023/09/15 06:32:32;;;;;;;2.00;1.80;;;;;;;11.39;100.00;100364.81;4839444;29;20046;-87
2023/09/15 06:34:59;;;;;;;2.58;1.67;;;;;;;11.38;100.00;100364.94;4792258;29;20608;-88
2023/09/15 06:37:29;;;;;;;2.25;1.88;;;;;;;11.35;100.00;100359.97;4825083;29;20038;-88
2023/09/15 06:39:56;;;;;;;3.55;1.83;;;;;;;11.40;100.00;100361.16;4807249;29;20041;-85
2023/09/15 06:42:25;;;;;;;4.13;2.15;;;;;;;11.37;100.00;100364.13;4821693;29;20046;-81
2023/09/15 06:44:53;;;;;;;3.28;1.90;;;;;;;11.43;100.00;100361.84;4810116;29;20037;-85
2023/09/15 06:47:21;;;;;;;3.88;2.05;;;;;;;11.38;100.00;100364.94;4792423;29;20030;-88
2023/09/15 06:49:48;;;;;;;3.08;2.15;;;;;;;11.40;100.00;100370.94;4792161;29;20062;-86
2023/09/15 06:52:16;;;;;;;1.70;1.60;;;;;;;11.36;100.00;100373.03;4810493;29;20757;-87
2023/09/15 06:54:44;;;;;;;2.45;1.67;;;;;;;11.40;100.00;100368.28;4806465;29;20065;-87
2023/09/15 06:57:11;;;;;;;5.15;2.13;;;;;;;11.38;100.00;100375.53;4799674;29;20046;-88
2023/09/15 06:59:39;;;;;;;3.08;1.80;;;;;;;11.35;100.00;100371.38;4821357;29;20141;-86
2023/09/15 07:02:08;;;;;;;4.53;1.95;;;;;;;11.33;100.00;100370.69;4806440;29;20045;-87
2023/09/15 07:04:35;;;;;;;2.75;1.60;;;;;;;11.40;100.00;100369.09;4790723;29;20042;-85
2023/09/15 07:07:03;;;;;;;7.13;2.50;;;;;;;11.36;100.00;100362.47;4834105;29;20037;-86
2023/09/15 07:09:30;;;;;;;4.60;1.80;;;;;;;11.38;100.00;100367.59;4785202;29;20120;-84
2023/09/15 07:11:59;;;;;;;3.85;1.98;;;;;;;11.37;100.00;100379.19;4808115;29;20053;-86
2023/09/15 07:14:25;;;;;;;2.80;2.08;;;;;;;11.37;100.00;100374.69;4812947;29;20038;-84
2023/09/15 07:16:54;;;;;;;4.47;1.90;;;;;;;11.33;100.00;100385.75;4804785;29;20045;-87
2023/09/15 07:19:22;;;;;;;3.65;2.42;;;;;;;11.38;100.00;100388.78;4803513;29;20080;-85
2023/09/15 07:21:50;;;;;;;4.05;2.28;;;;;;;11.34;100.00;100388.22;4795941;29;20044;-87
2023/09/15 07:24:17;;;;;;;3.00;1.88;;;;;;;11.36;100.00;100390.72;4795868;29;20054;-86
2023/09/15 07:26:47;;;;;;;3.30;1.98;;;;;;;11.36;100.00;100396.03;4805416;29;20031;-86
2023/09/15 07:29:14;;;;;;;5.80;1.70;;;;;;;11.37;100.00;100405.63;4825538;29;20045;-86
2023/09/15 07:31:43;;;;;;;3.25;2.10;;;;;;;11.34;100.00;100412.03;4812639;29;20070;-87
2023/09/15 07:34:10;;;;;;;3.95;1.85;;;;;;;11.37;100.00;100419.69;4807785;29;20053;-87
2023/09/15 07:36:38;;;;;;;2.90;1.73;;;;;;;11.37;100.00;100424.97;4816426;29;20577;-88
2023/09/15 07:39:05;;;;;;;5.10;2.10;;;;;;;11.41;100.00;100423.72;4810014;29;20078;-84
2023/09/15 07:41:34;;;;;;;4.30;1.75;;;;;;;11.42;100.00;100427.16;4806700;29;20044;-88
2023/09/15 07:44:01;;;;;;;4.45;1.90;;;;;;;11.45;100.00;100424.22;4808453;29;20038;-86
2023/09/15 07:46:29;;;;;;;4.10;1.75;;;;;;;11.41;100.00;100418.41;4793773;29;20048;-85
2023/09/15 07:48:57;;;;;;;3.42;1.83;;;;;;;11.43;100.00;100418.28;4814666;29;20046;-82
2023/09/15 07:51:27;;;;;;;2.38;1.30;;;;;;;11.42;100.00;100421.88;4820553;29;20069;-87
2023/09/15 07:53:54;;;;;;;3.72;1.40;;;;;;;11.41;100.00;100426.34;4809325;29;20483;-87
2023/09/15 07:56:22;;;;;;;5.43;2.30;;;;;;;11.37;100.00;100429.47;4789336;29;20620;-84
2023/09/15 07:58:50;;;;;;;2.60;1.70;;;;;;;11.44;100.00;100432.31;4836715;29;20033;-85
2023/09/15 08:01:19;;;;;;;5.35;2.10;;;;;;;11.44;100.00;100430.50;4807243;29;20049;-84
2023/09/15 08:03:47;;;;;;;2.35;1.73;;;;;;;11.47;100.00;100427.56;4804817;29;20076;-80
2023/09/15 08:06:15;;;;;;;3.35;1.55;;;;;;;11.46;100.00;100428.56;4817449;29;20033;-77
2023/09/15 08:08:42;;;;;;;2.22;1.60;;;;;;;11.52;100.00;100427.09;4817914;29;20072;-78
2023/09/15 08:11:11;;;;;;;3.95;1.23;;;;;;;11.51;100.00;100428.09;4820877;29;20111;-79
2023/09/15 08:13:39;;;;;;;3.60;1.75;;;;;;;11.55;100.00;100429.44;4816773;29;20105;-77
2023/09/15 08:16:07;;;;;;;2.72;1.70;;;;;;;11.56;100.00;100430.28;4802471;29;20506;-78
2023/09/15 08:18:35;;;;;;;3.22;1.55;;;;;;;11.59;100.00;100432.63;4797948;29;20041;-78
2023/09/15 08:21:04;;;;;;;2.97;1.40;;;;;;;11.57;100.00;100430.13;4801365;29;20041;-79
2023/09/15 08:23:33;;;;;;;2.47;1.35;;;;;;;11.58;100.00;100423.03;4812765;29;20198;-77
2023/09/15 08:26:02;;;;;;;2.30;1.38;;;;;;;11.57;100.00;100426.66;4812762;29;20045;-79
2023/09/15 08:28:29;;;;;;;2.85;1.40;;;;;;;11.60;100.00;100408.66;4788727;29;20226;-78
2023/09/15 08:30:57;;;;;;;3.05;1.30;;;;;;;11.60;100.00;100407.81;4787240;29;20050;-78
2023/09/15 08:33:25;;;;;;;1.63;1.08;;;;;;;11.63;100.00;100404.88;4802166;29;20053;-78
2023/09/15 08:35:52;;;;;;;1.20;0.93;;;;;;;11.58;100.00;100407.16;4784746;29;20070;-78
2023/09/15 08:38:20;;;;;;;1.60;1.00;;;;;;;11.63;100.00;100407.50;4804518;29;20129;-79
2023/09/15 08:40:55;;;;;;;2.60;1.40;;;;;;;11.63;100.00;100399.56;4786771;29;20089;-78
2023/09/15 08:43:23;;;;;;;2.53;1.17;;;;;;;11.63;100.00;100405.72;4769660;29;20046;-78
2023/09/15 08:45:53;;;;;;;3.40;0.95;;;;;;;11.60;100.00;100407.81;4789375;29;20034;-78
2023/09/15 08:48:24;;;;;;;5.68;1.23;;;;;;;11.62;100.00;100411.16;4804098;29;20038;-79
2023/09/15 08:50:54;;;;;;;1.55;0.80;;;;;;;11.60;100.00;100398.06;4783366;29;20058;-80
2023/09/15 08:53:22;;;;;;;2.13;0.80;;;;;;;11.59;100.00;100391.13;4766105;29;20042;-78
2023/09/15 08:55:52;;;;;;;4.72;1.33;;;;;;;11.62;100.00;100403.22;4802207;29;20030;-78
2023/09/15 08:58:18;;;;;;;2.67;0.90;;;;;;;11.64;100.00;100401.25;4803310;29;20043;-78
2023/09/15 09:00:47;;;;;;;1.88;1.02;;;;;;;11.60;100.00;100402.53;4795603;29;20049;-79
2023/09/15 09:03:15;;;;;;;1.85;0.90;;;;;;;11.61;100.00;100406.84;4771416;29;20074;-78
2023/09/15 09:05:47;;;;;;;2.80;1.25;;;;;;;11.60;100.00;100408.66;4787341;29;20034;-77
2023/09/15 09:08:18;;;;;;;4.72;1.40;;;;;;;11.61;100.00;100406.84;4802058;29;20041;-77
2023/09/15 09:10:50;;;;;;;3.05;1.85;;;;;;;11.63;100.00;100408.34;4786447;29;20038;-77
2023/09/15 09:13:20;;;;;;;3.45;1.33;;;;;;;11.64;100.00;100402.06;4794778;29;20117;-78
2023/09/15 09:15:49;;;;;;;3.30;1.10;;;;;;;11.60;100.00;100406.00;4796004;29;20038;-78
2023/09/15 09:18:18;;;;;;;2.63;0.98;;;;;;;11.62;100.00;100417.28;4798668;29;20094;-79
2023/09/15 09:20:49;;;;;;;2.50;1.00;;;;;;;11.63;100.00;100424.25;4790385;29;20099;-78
2023/09/15 09:23:18;;;;;;;1.23;0.80;;;;;;;11.68;100.00;100425.59;4820814;29;20031;-87
2023/09/15 09:25:48;;;;;;;1.73;1.13;;;;;;;11.65;100.00;100435.53;4788257;29;20050;-87
2023/09/15 09:28:19;;;;;;;3.20;1.10;;;;;;;11.67;100.00;100438.00;4785119;29;20148;-87
2023/09/15 09:31:28;;;;;;;2.63;0.98;;;;;;;11.70;100.00;100447.47;4795952;29;20042;-87
2023/09/15 09:34:00;;;;;;;2.42;1.00;;;;;;;11.71;100.00;100434.06;4792977;29;20066;-86
2023/09/15 09:36:34;;;;;;;2.03;0.77;;;;;;;11.62;100.00;100416.44;4784216;29;20030;-82
2023/09/15 09:39:08;;;;;;;2.05;1.00;;;;;;;11.62;100.00;100416.44;4792029;29;20042;-88
2023/09/15 09:41:46;;;;;;;1.50;1.13;;;;;;;11.61;100.00;100420.91;4806466;29;20050;-86
2023/09/15 09:45:07;;;;;;;;;;;;;;;;;;;;;
2023/09/15 09:48:10;;;;;;;4.07;1.10;;;;;;;11.63;100.00;100426.88;4806367;29;20099;-86
2023/09/15 09:51:03;;;;;;;1.80;1.00;;;;;;;11.69;100.00;100441.31;4792305;29;20515;-86
2023/09/15 09:53:36;;;;;;;1.27;0.82;;;;;;;11.69;100.00;100443.16;4801906;29;20408;-85
2023/09/15 09:56:51;;;;;;;3.30;1.00;;;;;;;11.68;100.00;100442.31;4791183;29;20034;-86
2023/09/15 09:59:30;;;;;;;1.92;0.82;;;;;;;11.63;100.00;100447.22;4752467;29;20052;-87
2023/09/15 10:02:19;;;;;;;2.03;1.70;;;;;;;11.62;100.00;100432.34;4804314;29;20035;-87
2023/09/15 10:04:53;;;;;;;3.97;1.00;;;;;;;11.59;100.00;100430.00;4804449;29;20114;-86
2023/09/15 10:07:31;;;;;;;2.30;0.95;;;;;;;11.60;100.00;100429.00;4793083;29;20604;-88
2023/09/15 10:10:13;;;;;;;2.97;1.00;;;;;;;11.62;100.00;100424.38;4794793;29;20407;-88
2023/09/15 10:12:52;;;;;;;2.55;1.00;;;;;;;11.61;100.00;100426.19;4776716;29;20049;-87
2023/09/15 10:16:00;;;;;;;;;;;;;;;;;;;;;
2023/09/15 10:19:10;;;;;;;1.80;0.93;;;;;;;11.58;100.00;100391.28;4805162;29;20057;-85
2023/09/15 10:22:00;;;;;;;;;;;;;;;;;;;;;
2023/09/15 10:25:02;;;;;;;1.38;1.00;;;;;;;11.63;100.00;100400.41;4808430;29;20126;-84
2023/09/15 10:27:55;;;;;;;3.65;0.80;;;;;;;11.56;100.00;100383.50;4782205;29;20042;-86
2023/09/15 10:30:25;;;;;;;2.08;1.05;;;;;;;11.61;100.00;100386.47;4786986;29;20102;-85
2023/09/15 10:33:19;;;;;;;2.17;1.20;;;;;;;11.63;100.00;100391.63;4793825;29;20519;-85
2023/09/15 10:35:49;;;;;;;4.63;1.30;;;;;;;11.63;100.00;100404.88;4773276;29;20137;-86
2023/09/15 10:38:57;;;;;;;3.17;1.25;;;;;;;11.64;100.00;100411.84;4791742;29;23885;-86
2023/09/15 10:41:43;;;;;;;;;;;;;;;;;;;;;
2023/09/15 10:44:14;;;;;;;3.63;1.13;;;;;;;11.69;100.00;100412.19;4795601;29;20045;-84
2023/09/15 10:47:05;;;;;;;2.17;1.10;;;;;;;11.63;100.00;100418.09;4809256;29;20022;-85
2023/09/15 10:49:56;;;;;;;5.72;1.30;;;;;;;11.61;100.00;100402.38;4799809;29;20792;-83
2023/09/15 10:52:37;;;;;;;1.92;1.27;;;;;;;11.58;100.00;100393.91;4779251;29;20041;-86
2023/09/15 10:55:08;;;;;;;2.15;1.02;;;;;;;11.56;100.00;100411.75;4771646;29;20072;-87
2023/09/15 10:57:39;;;;;;;3.67;1.23;;;;;;;11.57;100.00;100405.47;4823446;29;20084;-86
2023/09/15 11:00:13;;;;;;;3.28;0.98;;;;;;;11.51;100.00;100406.91;4792579;29;20141;-83
2023/09/15 11:02:46;;;;;;;1.88;1.10;;;;;;;11.50;100.00;100416.66;4791319;29;20034;-85
2023/09/15 11:05:45;;;;;;;3.97;1.23;;;;;;;11.47;100.00;100416.97;4815885;29;20041;-85
2023/09/15 11:08:37;;;;;;;2.03;1.23;;;;;;;11.49;100.00;100424.75;4797651;29;20134;-84
2023/09/15 11:11:14;;;;;;;1.80;1.02;;;;;;;11.55;100.00;100424.16;4773944;29;20476;-86
2023/09/15 11:13:44;;;;;;;2.95;1.58;;;;;;;11.54;100.00;100412.75;4774618;29;20069;-85
2023/09/15 11:16:17;;;;;;;1.08;0.73;;;;;;;11.57;100.00;100416.06;4779412;29;20041;-84
2023/09/15 11:18:51;;;;;;;2.05;1.10;;;;;;;11.55;100.00;100405.63;4808139;29;20566;-85
2023/09/15 11:21:48;;;;;;;3.35;1.27;;;;;;;11.63;100.00;100420.75;4799176;29;20125;-85
2023/09/15 11:24:28;;;;;;;2.70;1.30;;;;;;;11.58;100.00;100402.69;4782464;29;20053;-87
2023/09/15 11:27:06;;;;;;;1.92;1.40;;;;;;;11.63;100.00;100407.50;4819732;29;20044;-83
2023/09/15 11:29:43;;;;;;;1.83;1.02;;;;;;;11.68;100.00;100418.47;4822081;29;20042;-86
2023/09/15 11:32:13;;;;;;;4.10;1.30;;;;;;;11.66;100.00;100413.34;4813227;29;20044;-85
2023/09/15 11:34:44;;;;;;;3.42;1.20;;;;;;;11.66;100.00;100410.69;4818130;29;20113;-85
2023/09/15 11:37:25;;;;;;;1.55;1.10;;;;;;;11.68;100.00;100421.13;4817267;29;20030;-86
2023/09/15 11:39:54;;;;;;;1.40;0.98;;;;;;;11.72;100.00;100435.72;4797781;29;20038;-85
2023/09/15 11:42:25;;;;;;;2.55;1.33;;;;;;;11.66;100.00;100439.81;4800759;29;20048;-84
2023/09/15 11:44:53;;;;;;;4.15;1.85;;;;;;;11.64;100.00;100430.38;4808441;29;20065;-84
2023/09/15 11:47:31;;;;;;;1.77;1.00;;;;;;;11.60;100.00;100431.63;4815604;29;20042;-85
2023/09/15 11:50:09;;;;;;;1.88;1.38;;;;;;;11.61;100.00;100420.91;4800484;29;20070;-85
2023/09/15 11:52:43;;;;;;;2.03;1.10;;;;;;;11.61;100.00;100420.91;4816868;29;20105;-84
2023/09/15 11:55:34;;;;;;;;;;;;;;;;;;;;;
2023/09/15 11:58:05;;;;;;;3.33;1.27;;;;;;;11.67;100.00;100411.53;4809653;29;20125;-85
2023/09/15 12:00:35;;;;;;;2.80;1.40;;;;;;;11.60;100.00;100405.16;4791549;29;20038;-86
2023/09/15 12:03:06;;;;;;;2.47;1.60;;;;;;;11.66;100.00;100400.09;4782845;29;20034;-85
2023/09/15 12:05:45;;;;;;;1.88;1.33;;;;;;;11.72;100.00;100411.06;4786686;29;20038;-86
2023/09/15 12:08:40;;;;;;;2.63;1.38;;;;;;;11.75;100.00;100408.13;4809046;29;20129;-87